sensor_id;sensor_type;location;lat;lon;timestamp;temperature;humidity
21522;DHT22;10922;45.572;10.002;2023-05-23T00:00:56;19.20;99.90
21522;DHT22;10922;45.572;10.002;2023-05-23T00:03:23;19.30;99.90
21522;DHT22;10922;45.572;10.002;2023-05-23T00:05:48;19.30;99.90
21522;DHT22;10922;45.572;10.002;2023-05-23T00:08:15;19.40;99.90
21522;DHT22;10922;45.572;10.002;2023-05-23T00:10:41;19.30;99.90
21522;DHT22;10922;45.572;10.002;2023-05-23T00:13:06;19.30;99.90
21522;DHT22;10922;45.572;10.002;2023-05-23T00:15:37;19.40;99.90
21522;DHT22;10922;45.572;10.002;2023-05-23T00:18:02;19.40;99.90
21522;DHT22;10922;45.572;10.002;2023-05-23T00:20:28;19.30;99.90
21522;DHT22;10922;45.572;10.002;2023-05-23T00:22:54;19.30;99.90
21522;DHT22;10922;45.572;10.002;2023-05-23T00:25:25;19.30;99.90
21522;DHT22;10922;45.572;10.002;2023-05-23T00:28:01;19.20;99.90
21522;DHT22;10922;45.572;10.002;2023-05-23T00:30:28;19.20;99.90
21522;DHT22;10922;45.572;10.002;2023-05-23T00:32:54;19.20;99.90
21522;DHT22;10922;45.572;10.002;2023-05-23T00:35:20;19.10;99.90
21522;DHT22;10922;45.572;10.002;2023-05-23T00:37:48;19.10;99.90
21522;DHT22;10922;45.572;10.002;2023-05-23T00:40:16;19.10;99.90
21522;DHT22;10922;45.572;10.002;2023-05-23T00:42:42;19.10;99.90
21522;DHT22;10922;45.572;10.002;2023-05-23T00:45:07;19.20;99.90
21522;DHT22;10922;45.572;10.002;2023-05-23T00:47:33;19.20;99.90
21522;DHT22;10922;45.572;10.002;2023-05-23T00:49:58;19.20;99.90
21522;DHT22;10922;45.572;10.002;2023-05-23T00:52:24;19.40;99.90
21522;DHT22;10922;45.572;10.002;2023-05-23T00:54:50;19.30;99.90
21522;DHT22;10922;45.572;10.002;2023-05-23T00:57:16;19.30;99.90
21522;DHT22;10922;45.572;10.002;2023-05-23T00:59:41;19.30;99.90
21522;DHT22;10922;45.572;10.002;2023-05-23T01:02:07;19.30;99.90
21522;DHT22;10922;45.572;10.002;2023-05-23T01:04:33;19.20;99.90
21522;DHT22;10922;45.572;10.002;2023-05-23T01:07:00;19.20;99.90
21522;DHT22;10922;45.572;10.002;2023-05-23T01:09:26;19.20;99.90
21522;DHT22;10922;45.572;10.002;2023-05-23T01:14:20;19.10;99.90
21522;DHT22;10922;45.572;10.002;2023-05-23T01:16:47;19.10;99.90
21522;DHT22;10922;45.572;10.002;2023-05-23T01:22:05;19.00;99.90
21522;DHT22;10922;45.572;10.002;2023-05-23T01:24:41;19.00;99.90
21522;DHT22;10922;45.572;10.002;2023-05-23T01:27:20;18.90;99.90
21522;DHT22;10922;45.572;10.002;2023-05-23T01:29:48;18.90;99.90
21522;DHT22;10922;45.572;10.002;2023-05-23T01:32:16;19.00;99.90
21522;DHT22;10922;45.572;10.002;2023-05-23T01:34:43;18.90;99.90
21522;DHT22;10922;45.572;10.002;2023-05-23T01:37:09;18.90;99.90
21522;DHT22;10922;45.572;10.002;2023-05-23T01:39:36;18.80;99.90
21522;DHT22;10922;45.572;10.002;2023-05-23T01:42:01;18.80;99.90
21522;DHT22;10922;45.572;10.002;2023-05-23T01:44:27;18.80;99.90
21522;DHT22;10922;45.572;10.002;2023-05-23T01:46:53;18.80;99.90
21522;DHT22;10922;45.572;10.002;2023-05-23T01:49:18;18.80;99.90
21522;DHT22;10922;45.572;10.002;2023-05-23T01:51:46;18.70;99.90
21522;DHT22;10922;45.572;10.002;2023-05-23T01:54:12;18.70;99.90
21522;DHT22;10922;45.572;10.002;2023-05-23T01:56:38;18.70;99.90
21522;DHT22;10922;45.572;10.002;2023-05-23T01:59:04;18.70;99.90
21522;DHT22;10922;45.572;10.002;2023-05-23T02:01:30;18.80;99.90
21522;DHT22;10922;45.572;10.002;2023-05-23T02:03:55;18.80;99.90
21522;DHT22;10922;45.572;10.002;2023-05-23T02:06:21;18.80;99.90
21522;DHT22;10922;45.572;10.002;2023-05-23T02:08:47;18.90;99.90
21522;DHT22;10922;45.572;10.002;2023-05-23T02:11:12;19.00;99.90
21522;DHT22;10922;45.572;10.002;2023-05-23T02:13:38;19.00;99.90
21522;DHT22;10922;45.572;10.002;2023-05-23T02:16:03;18.90;99.90
21522;DHT22;10922;45.572;10.002;2023-05-23T02:18:29;19.00;99.90
21522;DHT22;10922;45.572;10.002;2023-05-23T02:20:54;19.00;99.90
21522;DHT22;10922;45.572;10.002;2023-05-23T02:23:23;18.90;99.90
21522;DHT22;10922;45.572;10.002;2023-05-23T02:25:48;18.90;99.90
21522;DHT22;10922;45.572;10.002;2023-05-23T02:28:13;18.90;99.90
21522;DHT22;10922;45.572;10.002;2023-05-23T02:30:39;18.90;99.90
21522;DHT22;10922;45.572;10.002;2023-05-23T02:33:05;18.80;99.90
21522;DHT22;10922;45.572;10.002;2023-05-23T02:35:31;18.80;99.90
21522;DHT22;10922;45.572;10.002;2023-05-23T02:37:56;18.80;99.90
21522;DHT22;10922;45.572;10.002;2023-05-23T02:40:22;18.70;99.90
21522;DHT22;10922;45.572;10.002;2023-05-23T02:42:47;18.70;99.90
21522;DHT22;10922;45.572;10.002;2023-05-23T02:45:15;18.70;99.90
21522;DHT22;10922;45.572;10.002;2023-05-23T02:47:41;18.60;99.90
21522;DHT22;10922;45.572;10.002;2023-05-23T02:50:06;18.50;99.90
21522;DHT22;10922;45.572;10.002;2023-05-23T02:52:32;18.50;99.90
21522;DHT22;10922;45.572;10.002;2023-05-23T02:54:57;18.20;99.90
21522;DHT22;10922;45.572;10.002;2023-05-23T02:57:23;18.20;99.90
21522;DHT22;10922;45.572;10.002;2023-05-23T02:59:48;18.20;99.90
21522;DHT22;10922;45.572;10.002;2023-05-23T03:02:14;18.10;99.90
21522;DHT22;10922;45.572;10.002;2023-05-23T03:04:39;18.10;99.90
21522;DHT22;10922;45.572;10.002;2023-05-23T03:07:05;18.20;99.90
21522;DHT22;10922;45.572;10.002;2023-05-23T03:09:31;18.10;99.90
21522;DHT22;10922;45.572;10.002;2023-05-23T03:11:56;18.10;99.90
21522;DHT22;10922;45.572;10.002;2023-05-23T03:14:22;18.10;99.90
21522;DHT22;10922;45.572;10.002;2023-05-23T03:16:47;18.10;99.90
21522;DHT22;10922;45.572;10.002;2023-05-23T03:19:13;18.10;99.90
21522;DHT22;10922;45.572;10.002;2023-05-23T03:21:38;18.00;99.90
21522;DHT22;10922;45.572;10.002;2023-05-23T03:24:04;17.90;99.90
21522;DHT22;10922;45.572;10.002;2023-05-23T03:26:29;17.90;99.90
21522;DHT22;10922;45.572;10.002;2023-05-23T03:28:55;18.00;99.90
21522;DHT22;10922;45.572;10.002;2023-05-23T03:31:21;18.00;99.90
21522;DHT22;10922;45.572;10.002;2023-05-23T03:33:46;17.90;99.90
21522;DHT22;10922;45.572;10.002;2023-05-23T03:36:12;17.90;99.90
21522;DHT22;10922;45.572;10.002;2023-05-23T03:38:37;17.90;99.90
21522;DHT22;10922;45.572;10.002;2023-05-23T03:41:03;17.80;99.90
21522;DHT22;10922;45.572;10.002;2023-05-23T03:43:28;17.90;99.90
21522;DHT22;10922;45.572;10.002;2023-05-23T03:45:54;17.70;99.90
21522;DHT22;10922;45.572;10.002;2023-05-23T03:48:20;17.80;99.90
21522;DHT22;10922;45.572;10.002;2023-05-23T03:50:45;17.90;99.90
21522;DHT22;10922;45.572;10.002;2023-05-23T03:53:10;17.80;99.90
21522;DHT22;10922;45.572;10.002;2023-05-23T03:55:37;17.80;99.90
21522;DHT22;10922;45.572;10.002;2023-05-23T03:58:03;17.80;99.90
21522;DHT22;10922;45.572;10.002;2023-05-23T04:00:28;17.90;99.90
21522;DHT22;10922;45.572;10.002;2023-05-23T04:02:54;17.80;99.90
21522;DHT22;10922;45.572;10.002;2023-05-23T04:05:20;17.90;99.90
21522;DHT22;10922;45.572;10.002;2023-05-23T04:07:45;18.00;99.90
21522;DHT22;10922;45.572;10.002;2023-05-23T04:10:11;18.10;99.90
21522;DHT22;10922;45.572;10.002;2023-05-23T04:12:36;18.10;99.90
21522;DHT22;10922;45.572;10.002;2023-05-23T04:15:06;18.20;99.90
21522;DHT22;10922;45.572;10.002;2023-05-23T04:17:31;18.30;99.90
21522;DHT22;10922;45.572;10.002;2023-05-23T04:19:57;18.30;99.90
21522;DHT22;10922;45.572;10.002;2023-05-23T04:22:23;18.30;99.90
21522;DHT22;10922;45.572;10.002;2023-05-23T04:24:48;18.30;99.90
21522;DHT22;10922;45.572;10.002;2023-05-23T04:27:14;18.40;99.90
21522;DHT22;10922;45.572;10.002;2023-05-23T04:29:39;18.40;99.90
21522;DHT22;10922;45.572;10.002;2023-05-23T04:32:05;18.40;99.90
21522;DHT22;10922;45.572;10.002;2023-05-23T04:34:31;18.50;99.90
21522;DHT22;10922;45.572;10.002;2023-05-23T04:37:00;18.60;99.90
21522;DHT22;10922;45.572;10.002;2023-05-23T04:39:29;18.60;99.90
21522;DHT22;10922;45.572;10.002;2023-05-23T04:41:54;18.70;99.90
21522;DHT22;10922;45.572;10.002;2023-05-23T04:44:21;18.80;99.90
21522;DHT22;10922;45.572;10.002;2023-05-23T04:46:47;18.80;99.90
21522;DHT22;10922;45.572;10.002;2023-05-23T04:49:12;18.90;99.90
21522;DHT22;10922;45.572;10.002;2023-05-23T04:51:38;19.10;99.90
21522;DHT22;10922;45.572;10.002;2023-05-23T04:54:04;19.10;99.90
21522;DHT22;10922;45.572;10.002;2023-05-23T04:56:29;19.20;99.90
21522;DHT22;10922;45.572;10.002;2023-05-23T04:58:55;19.30;99.90
21522;DHT22;10922;45.572;10.002;2023-05-23T05:01:21;19.30;99.90
21522;DHT22;10922;45.572;10.002;2023-05-23T05:03:49;19.40;99.90
21522;DHT22;10922;45.572;10.002;2023-05-23T05:06:15;19.40;99.90
21522;DHT22;10922;45.572;10.002;2023-05-23T05:08:41;19.50;99.90
21522;DHT22;10922;45.572;10.002;2023-05-23T05:11:07;19.50;99.90
21522;DHT22;10922;45.572;10.002;2023-05-23T05:13:33;19.60;99.90
21522;DHT22;10922;45.572;10.002;2023-05-23T05:15:58;19.70;99.90
21522;DHT22;10922;45.572;10.002;2023-05-23T05:18:26;19.70;99.90
21522;DHT22;10922;45.572;10.002;2023-05-23T05:20:52;19.80;99.90
21522;DHT22;10922;45.572;10.002;2023-05-23T05:23:18;19.90;99.90
21522;DHT22;10922;45.572;10.002;2023-05-23T05:25:43;20.00;99.90
21522;DHT22;10922;45.572;10.002;2023-05-23T05:28:09;20.00;99.90
21522;DHT22;10922;45.572;10.002;2023-05-23T05:30:34;20.10;99.90
21522;DHT22;10922;45.572;10.002;2023-05-23T05:33:00;20.20;99.90
21522;DHT22;10922;45.572;10.002;2023-05-23T05:35:31;20.20;99.90
21522;DHT22;10922;45.572;10.002;2023-05-23T05:37:57;20.30;99.90
21522;DHT22;10922;45.572;10.002;2023-05-23T05:40:22;20.40;99.90
21522;DHT22;10922;45.572;10.002;2023-05-23T05:42:48;20.40;99.90
21522;DHT22;10922;45.572;10.002;2023-05-23T05:45:13;20.50;99.90
21522;DHT22;10922;45.572;10.002;2023-05-23T05:47:39;20.60;99.90
21522;DHT22;10922;45.572;10.002;2023-05-23T05:50:05;20.70;99.90
21522;DHT22;10922;45.572;10.002;2023-05-23T05:52:32;20.80;99.90
21522;DHT22;10922;45.572;10.002;2023-05-23T05:54:58;20.90;99.90
21522;DHT22;10922;45.572;10.002;2023-05-23T05:57:24;20.90;99.90
21522;DHT22;10922;45.572;10.002;2023-05-23T05:59:50;21.00;99.90
21522;DHT22;10922;45.572;10.002;2023-05-23T06:02:15;21.10;99.90
21522;DHT22;10922;45.572;10.002;2023-05-23T06:04:41;21.10;99.90
21522;DHT22;10922;45.572;10.002;2023-05-23T06:07:06;21.20;99.90
21522;DHT22;10922;45.572;10.002;2023-05-23T06:09:32;21.20;99.90
21522;DHT22;10922;45.572;10.002;2023-05-23T06:11:57;21.30;99.90
21522;DHT22;10922;45.572;10.002;2023-05-23T06:14:23;21.30;99.90
21522;DHT22;10922;45.572;10.002;2023-05-23T06:16:48;21.40;99.90
21522;DHT22;10922;45.572;10.002;2023-05-23T06:19:14;21.40;99.90
21522;DHT22;10922;45.572;10.002;2023-05-23T06:21:39;21.60;99.90
21522;DHT22;10922;45.572;10.002;2023-05-23T06:24:05;21.60;99.90
21522;DHT22;10922;45.572;10.002;2023-05-23T06:26:30;21.70;99.90
21522;DHT22;10922;45.572;10.002;2023-05-23T06:28:56;21.80;99.90
21522;DHT22;10922;45.572;10.002;2023-05-23T06:31:21;21.70;99.90
21522;DHT22;10922;45.572;10.002;2023-05-23T06:33:47;21.90;99.90
21522;DHT22;10922;45.572;10.002;2023-05-23T06:36:12;21.90;99.90
21522;DHT22;10922;45.572;10.002;2023-05-23T06:38:38;22.00;99.90
21522;DHT22;10922;45.572;10.002;2023-05-23T06:41:03;22.00;99.90
21522;DHT22;10922;45.572;10.002;2023-05-23T06:43:31;22.10;99.90
21522;DHT22;10922;45.572;10.002;2023-05-23T06:45:56;22.20;99.90
21522;DHT22;10922;45.572;10.002;2023-05-23T06:48:22;22.20;99.90
21522;DHT22;10922;45.572;10.002;2023-05-23T06:50:47;22.30;99.90
21522;DHT22;10922;45.572;10.002;2023-05-23T06:53:13;22.40;99.90
21522;DHT22;10922;45.572;10.002;2023-05-23T06:55:40;22.40;99.90
21522;DHT22;10922;45.572;10.002;2023-05-23T06:58:06;22.50;99.90
21522;DHT22;10922;45.572;10.002;2023-05-23T07:00:31;22.60;99.90
21522;DHT22;10922;45.572;10.002;2023-05-23T07:02:57;22.60;99.90
21522;DHT22;10922;45.572;10.002;2023-05-23T07:05:27;22.60;99.90
21522;DHT22;10922;45.572;10.002;2023-05-23T07:07:53;22.70;99.90
21522;DHT22;10922;45.572;10.002;2023-05-23T07:10:18;22.70;99.90
21522;DHT22;10922;45.572;10.002;2023-05-23T07:12:45;22.90;99.90
21522;DHT22;10922;45.572;10.002;2023-05-23T07:15:10;23.00;99.90
21522;DHT22;10922;45.572;10.002;2023-05-23T07:17:36;23.00;99.90
21522;DHT22;10922;45.572;10.002;2023-05-23T07:20:02;23.10;99.90
21522;DHT22;10922;45.572;10.002;2023-05-23T07:22:29;23.20;99.90
21522;DHT22;10922;45.572;10.002;2023-05-23T07:24:54;23.20;99.90
21522;DHT22;10922;45.572;10.002;2023-05-23T07:27:20;23.30;99.90
21522;DHT22;10922;45.572;10.002;2023-05-23T07:29:46;23.30;99.90
21522;DHT22;10922;45.572;10.002;2023-05-23T07:32:12;23.30;99.90
21522;DHT22;10922;45.572;10.002;2023-05-23T07:34:37;23.30;99.90
21522;DHT22;10922;45.572;10.002;2023-05-23T07:37:03;23.40;99.90
21522;DHT22;10922;45.572;10.002;2023-05-23T07:39:28;23.50;99.90
21522;DHT22;10922;45.572;10.002;2023-05-23T07:41:54;23.50;99.90
21522;DHT22;10922;45.572;10.002;2023-05-23T07:44:19;23.50;99.90
21522;DHT22;10922;45.572;10.002;2023-05-23T07:46:45;23.60;99.90
21522;DHT22;10922;45.572;10.002;2023-05-23T07:49:10;23.70;99.90
21522;DHT22;10922;45.572;10.002;2023-05-23T07:51:36;23.80;99.90
21522;DHT22;10922;45.572;10.002;2023-05-23T07:54:01;23.90;99.90
21522;DHT22;10922;45.572;10.002;2023-05-23T07:56:27;24.00;99.90
21522;DHT22;10922;45.572;10.002;2023-05-23T07:58:52;24.10;99.90
21522;DHT22;10922;45.572;10.002;2023-05-23T08:01:18;24.00;99.90
21522;DHT22;10922;45.572;10.002;2023-05-23T08:03:44;24.00;99.90
21522;DHT22;10922;45.572;10.002;2023-05-23T08:06:10;24.30;99.90
21522;DHT22;10922;45.572;10.002;2023-05-23T08:08:35;24.30;99.90
21522;DHT22;10922;45.572;10.002;2023-05-23T08:11:02;24.30;99.90
21522;DHT22;10922;45.572;10.002;2023-05-23T08:13:27;24.50;99.90
21522;DHT22;10922;45.572;10.002;2023-05-23T08:15:53;24.60;99.90
21522;DHT22;10922;45.572;10.002;2023-05-23T08:18:18;24.70;99.90
21522;DHT22;10922;45.572;10.002;2023-05-23T08:20:44;24.70;99.90
21522;DHT22;10922;45.572;10.002;2023-05-23T08:23:10;24.80;99.90
21522;DHT22;10922;45.572;10.002;2023-05-23T08:25:37;24.90;99.90
21522;DHT22;10922;45.572;10.002;2023-05-23T08:28:03;24.80;99.90
21522;DHT22;10922;45.572;10.002;2023-05-23T08:30:28;24.90;99.90
21522;DHT22;10922;45.572;10.002;2023-05-23T08:32:55;24.90;99.90
21522;DHT22;10922;45.572;10.002;2023-05-23T08:35:20;25.00;99.90
21522;DHT22;10922;45.572;10.002;2023-05-23T08:37:46;25.10;99.90
21522;DHT22;10922;45.572;10.002;2023-05-23T08:40:13;25.20;99.90
21522;DHT22;10922;45.572;10.002;2023-05-23T08:42:39;25.40;99.90
21522;DHT22;10922;45.572;10.002;2023-05-23T08:45:05;25.30;99.90
21522;DHT22;10922;45.572;10.002;2023-05-23T08:47:30;25.10;99.90
21522;DHT22;10922;45.572;10.002;2023-05-23T08:49:58;25.10;99.90
21522;DHT22;10922;45.572;10.002;2023-05-23T08:52:24;25.00;99.90
21522;DHT22;10922;45.572;10.002;2023-05-23T08:54:49;25.20;99.90
21522;DHT22;10922;45.572;10.002;2023-05-23T08:57:15;25.40;99.90
21522;DHT22;10922;45.572;10.002;2023-05-23T08:59:41;25.20;99.90
21522;DHT22;10922;45.572;10.002;2023-05-23T09:02:07;25.10;99.90
21522;DHT22;10922;45.572;10.002;2023-05-23T09:04:34;25.30;99.90
21522;DHT22;10922;45.572;10.002;2023-05-23T09:07:00;25.60;99.90
21522;DHT22;10922;45.572;10.002;2023-05-23T09:09:27;25.90;99.90
21522;DHT22;10922;45.572;10.002;2023-05-23T09:11:54;25.80;99.90
21522;DHT22;10922;45.572;10.002;2023-05-23T09:14:20;25.50;99.90
21522;DHT22;10922;45.572;10.002;2023-05-23T09:16:46;25.40;99.90
21522;DHT22;10922;45.572;10.002;2023-05-23T09:19:13;25.50;99.90
21522;DHT22;10922;45.572;10.002;2023-05-23T09:21:42;25.60;99.90
21522;DHT22;10922;45.572;10.002;2023-05-23T09:24:08;25.80;99.90
21522;DHT22;10922;45.572;10.002;2023-05-23T09:26:33;25.40;99.90
21522;DHT22;10922;45.572;10.002;2023-05-23T09:28:59;25.80;99.90
21522;DHT22;10922;45.572;10.002;2023-05-23T09:31:25;25.30;99.90
21522;DHT22;10922;45.572;10.002;2023-05-23T09:33:50;25.40;99.90
21522;DHT22;10922;45.572;10.002;2023-05-23T09:36:16;25.80;99.90
21522;DHT22;10922;45.572;10.002;2023-05-23T09:38:43;25.60;99.90
21522;DHT22;10922;45.572;10.002;2023-05-23T09:41:09;25.40;99.90
21522;DHT22;10922;45.572;10.002;2023-05-23T09:43:38;25.50;99.90
21522;DHT22;10922;45.572;10.002;2023-05-23T09:46:08;25.70;99.90
21522;DHT22;10922;45.572;10.002;2023-05-23T09:48:34;25.70;99.90
21522;DHT22;10922;45.572;10.002;2023-05-23T09:51:09;25.80;99.90
21522;DHT22;10922;45.572;10.002;2023-05-23T09:53:35;25.80;99.90
21522;DHT22;10922;45.572;10.002;2023-05-23T09:56:03;26.00;99.90
21522;DHT22;10922;45.572;10.002;2023-05-23T09:58:29;26.10;99.90
21522;DHT22;10922;45.572;10.002;2023-05-23T10:00:57;25.90;99.90
21522;DHT22;10922;45.572;10.002;2023-05-23T10:03:33;26.00;99.90
21522;DHT22;10922;45.572;10.002;2023-05-23T10:06:00;25.70;99.90
21522;DHT22;10922;45.572;10.002;2023-05-23T10:08:31;26.30;99.90
21522;DHT22;10922;45.572;10.002;2023-05-23T10:13:42;26.40;99.90
21522;DHT22;10922;45.572;10.002;2023-05-23T10:16:11;25.70;99.90
21522;DHT22;10922;45.572;10.002;2023-05-23T10:18:38;25.70;99.90
21522;DHT22;10922;45.572;10.002;2023-05-23T10:21:08;26.10;99.90
21522;DHT22;10922;45.572;10.002;2023-05-23T10:23:36;26.10;99.90
21522;DHT22;10922;45.572;10.002;2023-05-23T10:26:02;26.50;99.90
21522;DHT22;10922;45.572;10.002;2023-05-23T10:28:29;26.70;99.90
21522;DHT22;10922;45.572;10.002;2023-05-23T10:30:55;26.50;99.90
21522;DHT22;10922;45.572;10.002;2023-05-23T10:33:21;26.70;99.90
21522;DHT22;10922;45.572;10.002;2023-05-23T10:35:49;26.80;99.90
21522;DHT22;10922;45.572;10.002;2023-05-23T10:38:31;26.60;99.90
21522;DHT22;10922;45.572;10.002;2023-05-23T10:41:06;26.90;99.90
21522;DHT22;10922;45.572;10.002;2023-05-23T10:43:47;26.50;99.90
21522;DHT22;10922;45.572;10.002;2023-05-23T10:46:14;26.30;99.90
21522;DHT22;10922;45.572;10.002;2023-05-23T10:48:40;26.80;99.90
21522;DHT22;10922;45.572;10.002;2023-05-23T10:51:08;27.10;99.90
21522;DHT22;10922;45.572;10.002;2023-05-23T10:53:38;26.10;99.90
21522;DHT22;10922;45.572;10.002;2023-05-23T10:56:04;26.60;99.90
21522;DHT22;10922;45.572;10.002;2023-05-23T10:58:30;27.00;99.90
21522;DHT22;10922;45.572;10.002;2023-05-23T11:01:00;27.00;99.90
21522;DHT22;10922;45.572;10.002;2023-05-23T11:06:27;26.80;99.90
21522;DHT22;10922;45.572;10.002;2023-05-23T11:09:00;26.70;99.90
21522;DHT22;10922;45.572;10.002;2023-05-23T11:11:28;27.10;99.90
21522;DHT22;10922;45.572;10.002;2023-05-23T11:14:11;27.50;99.90
21522;DHT22;10922;45.572;10.002;2023-05-23T11:16:40;27.10;99.90
21522;DHT22;10922;45.572;10.002;2023-05-23T11:21:43;27.90;99.90
21522;DHT22;10922;45.572;10.002;2023-05-23T11:24:09;27.00;99.90
21522;DHT22;10922;45.572;10.002;2023-05-23T11:26:35;26.90;99.90
21522;DHT22;10922;45.572;10.002;2023-05-23T11:29:00;27.50;99.90
21522;DHT22;10922;45.572;10.002;2023-05-23T11:31:29;27.70;99.90
21522;DHT22;10922;45.572;10.002;2023-05-23T11:33:55;28.00;99.90
21522;DHT22;10922;45.572;10.002;2023-05-23T11:36:21;27.90;99.90
21522;DHT22;10922;45.572;10.002;2023-05-23T11:38:50;26.90;99.90
21522;DHT22;10922;45.572;10.002;2023-05-23T11:41:17;27.30;99.90
21522;DHT22;10922;45.572;10.002;2023-05-23T11:43:52;27.90;99.90
21522;DHT22;10922;45.572;10.002;2023-05-23T11:46:18;27.60;99.90
21522;DHT22;10922;45.572;10.002;2023-05-23T11:48:44;27.50;99.90
21522;DHT22;10922;45.572;10.002;2023-05-23T11:51:09;27.50;99.90
21522;DHT22;10922;45.572;10.002;2023-05-23T11:53:35;27.30;99.90
21522;DHT22;10922;45.572;10.002;2023-05-23T11:56:00;27.90;99.90
21522;DHT22;10922;45.572;10.002;2023-05-23T11:58:33;28.50;99.90
21522;DHT22;10922;45.572;10.002;2023-05-23T12:01:03;29.10;99.90
21522;DHT22;10922;45.572;10.002;2023-05-23T12:03:29;28.90;99.90
21522;DHT22;10922;45.572;10.002;2023-05-23T12:05:56;28.00;99.90
21522;DHT22;10922;45.572;10.002;2023-05-23T12:08:21;27.50;99.90
21522;DHT22;10922;45.572;10.002;2023-05-23T12:10:48;27.40;99.90
21522;DHT22;10922;45.572;10.002;2023-05-23T12:13:13;27.40;99.90
21522;DHT22;10922;45.572;10.002;2023-05-23T12:15:39;28.30;99.90
21522;DHT22;10922;45.572;10.002;2023-05-23T12:18:04;29.30;99.90
21522;DHT22;10922;45.572;10.002;2023-05-23T12:20:31;28.90;99.90
21522;DHT22;10922;45.572;10.002;2023-05-23T12:23:03;29.00;99.90
21522;DHT22;10922;45.572;10.002;2023-05-23T12:25:28;29.20;99.90
21522;DHT22;10922;45.572;10.002;2023-05-23T12:27:55;29.00;99.90
21522;DHT22;10922;45.572;10.002;2023-05-23T12:30:20;28.90;99.90
21522;DHT22;10922;45.572;10.002;2023-05-23T12:32:46;29.40;99.90
21522;DHT22;10922;45.572;10.002;2023-05-23T12:35:12;29.40;99.90
21522;DHT22;10922;45.572;10.002;2023-05-23T12:37:39;30.10;99.90
21522;DHT22;10922;45.572;10.002;2023-05-23T12:40:14;29.90;99.90
21522;DHT22;10922;45.572;10.002;2023-05-23T12:42:49;28.70;99.90
21522;DHT22;10922;45.572;10.002;2023-05-23T12:45:18;30.10;99.90
21522;DHT22;10922;45.572;10.002;2023-05-23T12:47:44;31.20;99.90
21522;DHT22;10922;45.572;10.002;2023-05-23T12:50:10;33.60;99.90
21522;DHT22;10922;45.572;10.002;2023-05-23T12:52:36;37.30;99.90
21522;DHT22;10922;45.572;10.002;2023-05-23T12:55:03;37.30;99.90
21522;DHT22;10922;45.572;10.002;2023-05-23T12:57:29;36.60;99.90
21522;DHT22;10922;45.572;10.002;2023-05-23T12:59:55;35.90;99.90
21522;DHT22;10922;45.572;10.002;2023-05-23T13:02:21;39.60;99.90
21522;DHT22;10922;45.572;10.002;2023-05-23T13:04:47;41.90;99.90
21522;DHT22;10922;45.572;10.002;2023-05-23T13:07:12;40.30;99.90
21522;DHT22;10922;45.572;10.002;2023-05-23T13:09:38;41.30;99.90
21522;DHT22;10922;45.572;10.002;2023-05-23T13:12:07;40.00;99.90
21522;DHT22;10922;45.572;10.002;2023-05-23T13:14:33;37.70;99.90
21522;DHT22;10922;45.572;10.002;2023-05-23T13:16:59;35.60;99.90
21522;DHT22;10922;45.572;10.002;2023-05-23T13:19:24;39.10;99.90
21522;DHT22;10922;45.572;10.002;2023-05-23T13:21:50;39.40;99.90
21522;DHT22;10922;45.572;10.002;2023-05-23T13:24:16;39.60;99.90
21522;DHT22;10922;45.572;10.002;2023-05-23T13:26:42;45.10;99.90
21522;DHT22;10922;45.572;10.002;2023-05-23T13:29:07;42.20;99.90
21522;DHT22;10922;45.572;10.002;2023-05-23T13:31:33;41.30;99.90
21522;DHT22;10922;45.572;10.002;2023-05-23T13:33:59;42.80;99.90
21522;DHT22;10922;45.572;10.002;2023-05-23T13:36:24;43.00;99.90
21522;DHT22;10922;45.572;10.002;2023-05-23T13:38:50;45.30;99.90
21522;DHT22;10922;45.572;10.002;2023-05-23T13:41:16;42.70;99.90
21522;DHT22;10922;45.572;10.002;2023-05-23T13:43:42;44.50;99.90
21522;DHT22;10922;45.572;10.002;2023-05-23T13:46:07;47.00;99.90
21522;DHT22;10922;45.572;10.002;2023-05-23T13:48:33;43.80;99.90
21522;DHT22;10922;45.572;10.002;2023-05-23T13:51:00;48.30;99.90
21522;DHT22;10922;45.572;10.002;2023-05-23T13:53:26;49.40;99.90
21522;DHT22;10922;45.572;10.002;2023-05-23T13:55:52;49.00;99.90
21522;DHT22;10922;45.572;10.002;2023-05-23T13:58:17;46.80;99.90
21522;DHT22;10922;45.572;10.002;2023-05-23T14:00:43;44.70;99.90
21522;DHT22;10922;45.572;10.002;2023-05-23T14:03:09;42.80;99.90
21522;DHT22;10922;45.572;10.002;2023-05-23T14:05:34;37.70;99.90
21522;DHT22;10922;45.572;10.002;2023-05-23T14:08:01;37.30;99.90
21522;DHT22;10922;45.572;10.002;2023-05-23T14:10:26;37.90;99.90
21522;DHT22;10922;45.572;10.002;2023-05-23T14:12:53;37.80;99.90
21522;DHT22;10922;45.572;10.002;2023-05-23T14:15:20;37.80;99.90
21522;DHT22;10922;45.572;10.002;2023-05-23T14:17:45;37.90;99.90
21522;DHT22;10922;45.572;10.002;2023-05-23T14:20:11;36.90;99.90
21522;DHT22;10922;45.572;10.002;2023-05-23T14:22:37;37.40;99.90
21522;DHT22;10922;45.572;10.002;2023-05-23T14:25:02;37.90;99.90
21522;DHT22;10922;45.572;10.002;2023-05-23T14:27:28;37.70;99.90
21522;DHT22;10922;45.572;10.002;2023-05-23T14:29:53;36.60;99.90
21522;DHT22;10922;45.572;10.002;2023-05-23T14:32:19;35.10;99.90
21522;DHT22;10922;45.572;10.002;2023-05-23T14:34:44;35.40;99.90
21522;DHT22;10922;45.572;10.002;2023-05-23T14:37:10;36.50;99.90
21522;DHT22;10922;45.572;10.002;2023-05-23T14:39:35;38.10;99.90
21522;DHT22;10922;45.572;10.002;2023-05-23T14:42:01;40.10;99.90
21522;DHT22;10922;45.572;10.002;2023-05-23T14:44:27;41.10;99.90
21522;DHT22;10922;45.572;10.002;2023-05-23T14:46:52;42.20;99.90
21522;DHT22;10922;45.572;10.002;2023-05-23T14:49:18;43.00;99.90
21522;DHT22;10922;45.572;10.002;2023-05-23T14:51:43;40.90;99.90
21522;DHT22;10922;45.572;10.002;2023-05-23T14:54:09;40.10;99.90
21522;DHT22;10922;45.572;10.002;2023-05-23T14:56:35;40.00;99.90
21522;DHT22;10922;45.572;10.002;2023-05-23T14:59:03;40.70;99.90
21522;DHT22;10922;45.572;10.002;2023-05-23T15:01:28;38.50;99.90
21522;DHT22;10922;45.572;10.002;2023-05-23T15:03:54;37.20;99.90
21522;DHT22;10922;45.572;10.002;2023-05-23T15:06:19;36.70;99.90
21522;DHT22;10922;45.572;10.002;2023-05-23T15:08:45;36.80;99.90
21522;DHT22;10922;45.572;10.002;2023-05-23T15:11:11;36.80;99.90
21522;DHT22;10922;45.572;10.002;2023-05-23T15:13:37;35.20;99.90
21522;DHT22;10922;45.572;10.002;2023-05-23T15:16:02;34.80;99.90
21522;DHT22;10922;45.572;10.002;2023-05-23T15:18:29;33.80;99.90
21522;DHT22;10922;45.572;10.002;2023-05-23T15:20:55;33.60;99.90
21522;DHT22;10922;45.572;10.002;2023-05-23T15:23:21;34.20;99.90